Coyoles Airport


Codes: MHCS/CYL
Name: Coyoles Airport
City: Coyoles
Country: Honduras
Elevation: 519 ft.

Photos at Coyoles Airport


   Photos courtesy of SpottingLog. You can add your own sightings and photos by signing up for a free trial today.



No photos found.

Weather at Coyoles Airport


Time (UTC)DescriptionTempratureWindCloud coverageVisibilityPressureHumidity
21-Feb-2024 03:00Clear Sky22°C2 mph, NW4%10000m1025hPa96%
21-Feb-2024 06:00Clear Sky20°C2 mph, W4%10000m1025hPa96%
21-Feb-2024 09:00Broken Clouds20°C2 mph, W55%10000m1023hPa91%
21-Feb-2024 12:00Light Rain19°C2 mph, W90%10000m1023hPa93%
21-Feb-2024 15:00Light Rain20°C2 mph, N100%10000m1024hPa89%
21-Feb-2024 18:00Light Rain20°C2 mph, NE100%7233m1023hPa95%
21-Feb-2024 21:00Light Rain22°C4 mph, NE92%10000m1020hPa90%
22-Feb-2024 00:00Light Rain20°C2 mph, NE83%10000m1021hPa98%
22-Feb-2024 03:00Light Rain18°C2 mph, N56%10000m1022hPa96%
22-Feb-2024 06:00Scattered Clouds17°C0 mph, NW44%10000m1022hPa95%
22-Feb-2024 09:00Few Clouds16°C2 mph, W21%10000m1020hPa96%
22-Feb-2024 12:00Few Clouds15°C0 mph, SW15%10000m1021hPa96%
22-Feb-2024 15:00Clear Sky22°C2 mph, SE3%10000m1020hPa70%
22-Feb-2024 18:00Clear Sky29°C2 mph, E1%10000m1016hPa39%
22-Feb-2024 21:00Clear Sky30°C4 mph, NE0%10000m1012hPa36%
23-Feb-2024 00:00Clear Sky20°C4 mph, N0%10000m1014hPa83%
23-Feb-2024 03:00Clear Sky18°C2 mph, E1%10000m1017hPa96%
23-Feb-2024 06:00Clear Sky17°C2 mph, SW8%10000m1015hPa96%
23-Feb-2024 09:00Clear Sky16°C2 mph, SW10%10000m1013hPa92%
23-Feb-2024 12:00Clear Sky16°C2 mph, SW6%10000m1014hPa88%
23-Feb-2024 15:00Clear Sky26°C2 mph, S0%10000m1014hPa52%
23-Feb-2024 18:00Clear Sky32°C2 mph, NE0%10000m1012hPa33%
23-Feb-2024 21:00Clear Sky32°C4 mph, NE0%10000m1009hPa32%
24-Feb-2024 00:00Clear Sky22°C4 mph, N0%10000m1013hPa85%
24-Feb-2024 03:00Clear Sky19°C0 mph, SE1%10000m1016hPa96%
24-Feb-2024 06:00Clear Sky18°C2 mph, W2%10000m1016hPa97%
24-Feb-2024 09:00Clear Sky18°C2 mph, W6%10000m1015hPa97%
24-Feb-2024 12:00Clear Sky18°C2 mph, W6%10000m1017hPa96%
24-Feb-2024 15:00Clear Sky26°C2 mph, N2%10000m1019hPa58%
24-Feb-2024 18:00Clear Sky31°C2 mph, NE1%10000m1016hPa38%
24-Feb-2024 21:00Clear Sky30°C4 mph, NE2%10000m1014hPa42%
25-Feb-2024 00:00Clear Sky21°C4 mph, N3%10000m1018hPa85%
25-Feb-2024 03:00Clear Sky18°C2 mph, N2%10000m1021hPa97%
25-Feb-2024 06:00Clear Sky17°C0 mph, SW6%10000m1020hPa95%
25-Feb-2024 09:00Few Clouds17°C2 mph, SW11%10000m1019hPa93%
25-Feb-2024 12:00Clear Sky16°C2 mph, SW9%10000m1020hPa90%
25-Feb-2024 15:00Clear Sky25°C2 mph, NE2%10000m1021hPa54%
25-Feb-2024 18:00Clear Sky29°C4 mph, NE1%10000m1018hPa39%
25-Feb-2024 21:00Clear Sky29°C7 mph, NE0%10000m1015hPa42%
26-Feb-2024 00:00Clear Sky21°C4 mph, N0%10000m1018hPa85%